sensor_id;sensor_type;location;lat;lon;timestamp;pressure;altitude;pressure_sealevel;temperature;humidity
45523;BME280;31254;51.680;5.394;2023-05-20T00:00:30;102452.59;;;12.87;58.93
45523;BME280;31254;51.680;5.394;2023-05-20T00:02:59;102444.75;;;12.82;59.40
45523;BME280;31254;51.680;5.394;2023-05-20T00:05:26;102449.72;;;12.77;59.56
45523;BME280;31254;51.680;5.394;2023-05-20T00:07:58;102447.34;;;12.72;59.65
45523;BME280;31254;51.680;5.394;2023-05-20T00:10:26;102456.69;;;12.70;59.87
45523;BME280;31254;51.680;5.394;2023-05-20T00:12:55;102464.28;;;12.66;60.27
45523;BME280;31254;51.680;5.394;2023-05-20T00:15:22;102457.22;;;12.64;60.30
45523;BME280;31254;51.680;5.394;2023-05-20T00:17:51;102445.25;;;12.53;60.48
45523;BME280;31254;51.680;5.394;2023-05-20T00:20:20;102447.84;;;12.55;60.80
45523;BME280;31254;51.680;5.394;2023-05-20T00:22:47;102447.59;;;12.47;60.83
45523;BME280;31254;51.680;5.394;2023-05-20T00:25:16;102460.44;;;12.46;61.11
45523;BME280;31254;51.680;5.394;2023-05-20T00:27:43;102449.72;;;12.43;61.08
45523;BME280;31254;51.680;5.394;2023-05-20T00:30:12;102461.78;;;12.40;61.33
45523;BME280;31254;51.680;5.394;2023-05-20T00:32:41;102439.63;;;12.32;61.67
45523;BME280;31254;51.680;5.394;2023-05-20T00:35:10;102445.47;;;12.28;61.93
45523;BME280;31254;51.680;5.394;2023-05-20T00:37:38;102442.84;;;12.26;61.98
45523;BME280;31254;51.680;5.394;2023-05-20T00:40:05;102446.84;;;12.22;62.34
45523;BME280;31254;51.680;5.394;2023-05-20T00:42:32;102452.44;;;12.20;62.49
45523;BME280;31254;51.680;5.394;2023-05-20T00:45:01;102447.31;;;12.16;62.71
45523;BME280;31254;51.680;5.394;2023-05-20T00:47:32;102448.84;;;12.20;62.69
45523;BME280;31254;51.680;5.394;2023-05-20T00:49:59;102452.44;;;12.20;62.59
45523;BME280;31254;51.680;5.394;2023-05-20T00:52:30;102432.91;;;12.14;62.54
45523;BME280;31254;51.680;5.394;2023-05-20T00:54:58;102443.34;;;12.20;62.79
45523;BME280;31254;51.680;5.394;2023-05-20T00:57:25;102432.78;;;12.15;62.83
45523;BME280;31254;51.680;5.394;2023-05-20T00:59:56;102435.75;;;12.12;62.99
45523;BME280;31254;51.680;5.394;2023-05-20T01:02:26;102436.22;;;12.06;63.19
45523;BME280;31254;51.680;5.394;2023-05-20T01:04:53;102433.63;;;12.04;63.13
45523;BME280;31254;51.680;5.394;2023-05-20T01:07:22;102431.72;;;11.94;63.50
45523;BME280;31254;51.680;5.394;2023-05-20T01:09:51;102437.84;;;11.97;63.67
45523;BME280;31254;51.680;5.394;2023-05-20T01:12:25;102430.31;;;11.88;63.94
45523;BME280;31254;51.680;5.394;2023-05-20T01:15:04;102434.03;;;11.87;63.80
45523;BME280;31254;51.680;5.394;2023-05-20T01:17:44;102431.16;;;11.77;64.34
45523;BME280;31254;51.680;5.394;2023-05-20T01:20:16;102435.13;;;11.73;64.67
45523;BME280;31254;51.680;5.394;2023-05-20T01:22:54;102436.22;;;11.70;64.91
45523;BME280;31254;51.680;5.394;2023-05-20T01:25:23;102429.25;;;11.66;64.80
45523;BME280;31254;51.680;5.394;2023-05-20T01:27:53;102429.38;;;11.65;65.03
45523;BME280;31254;51.680;5.394;2023-05-20T01:30:34;102418.91;;;11.59;65.43
45523;BME280;31254;51.680;5.394;2023-05-20T01:33:08;102427.56;;;11.52;65.72
45523;BME280;31254;51.680;5.394;2023-05-20T01:35:38;102418.53;;;11.52;65.94
45523;BME280;31254;51.680;5.394;2023-05-20T01:38:07;102424.09;;;11.50;65.72
45523;BME280;31254;51.680;5.394;2023-05-20T01:40:34;102372.31;;;11.25;65.75
45523;BME280;31254;51.680;5.394;2023-05-20T01:43:02;102421.59;;;11.47;66.03
45523;BME280;31254;51.680;5.394;2023-05-20T01:45:28;102422.94;;;11.42;66.72
45523;BME280;31254;51.680;5.394;2023-05-20T01:47:57;102414.09;;;11.38;66.52
45523;BME280;31254;51.680;5.394;2023-05-20T01:50:24;102413.34;;;11.36;66.69
45523;BME280;31254;51.680;5.394;2023-05-20T01:52:54;102412.94;;;11.29;66.89
45523;BME280;31254;51.680;5.394;2023-05-20T01:55:23;102417.41;;;11.30;66.79
45523;BME280;31254;51.680;5.394;2023-05-20T01:57:50;102412.94;;;11.29;67.14
45523;BME280;31254;51.680;5.394;2023-05-20T02:00:17;102411.31;;;11.27;66.97
45523;BME280;31254;51.680;5.394;2023-05-20T02:02:43;102414.16;;;11.25;67.40
45523;BME280;31254;51.680;5.394;2023-05-20T02:05:10;102411.44;;;11.25;67.37
45523;BME280;31254;51.680;5.394;2023-05-20T02:07:37;102415.16;;;11.24;67.53
45523;BME280;31254;51.680;5.394;2023-05-20T02:10:04;102407.31;;;11.20;67.64
45523;BME280;31254;51.680;5.394;2023-05-20T02:12:31;102404.69;;;11.18;67.57
45523;BME280;31254;51.680;5.394;2023-05-20T02:14:58;102413.41;;;11.23;67.59
45523;BME280;31254;51.680;5.394;2023-05-20T02:17:25;102408.19;;;11.20;68.11
45523;BME280;31254;51.680;5.394;2023-05-20T02:19:54;102404.81;;;11.16;68.13
45523;BME280;31254;51.680;5.394;2023-05-20T02:22:21;102409.88;;;11.10;68.65
45523;BME280;31254;51.680;5.394;2023-05-20T02:24:47;102411.31;;;11.03;68.85
45523;BME280;31254;51.680;5.394;2023-05-20T02:27:14;102408.78;;;11.00;69.09
45523;BME280;31254;51.680;5.394;2023-05-20T02:29:42;102401.38;;;11.02;69.12
45523;BME280;31254;51.680;5.394;2023-05-20T02:32:09;102402.25;;;11.02;69.09
45523;BME280;31254;51.680;5.394;2023-05-20T02:34:36;102396.66;;;11.04;68.87
45523;BME280;31254;51.680;5.394;2023-05-20T02:37:03;102404.88;;;11.04;69.36
45523;BME280;31254;51.680;5.394;2023-05-20T02:39:30;102397.66;;;11.03;68.94
45523;BME280;31254;51.680;5.394;2023-05-20T02:41:57;102398.53;;;11.03;69.20
45523;BME280;31254;51.680;5.394;2023-05-20T02:44:28;102388.94;;;10.97;69.27
45523;BME280;31254;51.680;5.394;2023-05-20T02:47:00;102396.78;;;11.02;68.94
45523;BME280;31254;51.680;5.394;2023-05-20T02:49:26;102394.41;;;10.97;69.43
45523;BME280;31254;51.680;5.394;2023-05-20T02:51:55;102395.38;;;10.96;69.82
45523;BME280;31254;51.680;5.394;2023-05-20T02:54:24;102390.16;;;10.93;69.71
45523;BME280;31254;51.680;5.394;2023-05-20T02:56:53;102394.84;;;10.91;69.86
45523;BME280;31254;51.680;5.394;2023-05-20T02:59:20;102394.84;;;10.91;69.76
45523;BME280;31254;51.680;5.394;2023-05-20T03:01:49;102396.81;;;10.89;70.36
45523;BME280;31254;51.680;5.394;2023-05-20T03:04:16;102397.81;;;10.88;70.23
45523;BME280;31254;51.680;5.394;2023-05-20T03:06:44;102399.78;;;10.86;70.18
45523;BME280;31254;51.680;5.394;2023-05-20T03:09:11;102393.56;;;10.84;70.33
45523;BME280;31254;51.680;5.394;2023-05-20T03:11:39;102399.16;;;10.83;70.35
45523;BME280;31254;51.680;5.394;2023-05-20T03:14:06;102392.94;;;10.81;70.64
45523;BME280;31254;51.680;5.394;2023-05-20T03:16:32;102395.88;;;10.77;70.85
45523;BME280;31254;51.680;5.394;2023-05-20T03:19:01;102397.19;;;10.72;70.64
45523;BME280;31254;51.680;5.394;2023-05-20T03:21:30;102396.00;;;10.76;71.12
45523;BME280;31254;51.680;5.394;2023-05-20T03:23:57;102385.66;;;10.68;70.97
45523;BME280;31254;51.680;5.394;2023-05-20T03:26:24;102407.91;;;10.75;71.07
45523;BME280;31254;51.680;5.394;2023-05-20T03:28:56;102382.16;;;10.66;71.45
45523;BME280;31254;51.680;5.394;2023-05-20T03:31:22;102395.59;;;10.69;71.32
45523;BME280;31254;51.680;5.394;2023-05-20T03:33:49;102407.25;;;10.71;71.21
45523;BME280;31254;51.680;5.394;2023-05-20T03:36:16;102402.78;;;10.70;71.44
45523;BME280;31254;51.680;5.394;2023-05-20T03:38:43;102400.03;;;10.70;71.21
45523;BME280;31254;51.680;5.394;2023-05-20T03:41:12;102393.19;;;10.65;70.97
45523;BME280;31254;51.680;5.394;2023-05-20T03:43:41;102396.69;;;10.67;71.34
45523;BME280;31254;51.680;5.394;2023-05-20T03:46:07;102395.03;;;10.64;71.42
45523;BME280;31254;51.680;5.394;2023-05-20T03:48:34;102386.41;;;10.57;71.99
45523;BME280;31254;51.680;5.394;2023-05-20T03:51:01;102389.03;;;10.59;71.89
45523;BME280;31254;51.680;5.394;2023-05-20T03:53:30;102391.88;;;10.57;72.24
45523;BME280;31254;51.680;5.394;2023-05-20T03:55:59;102397.22;;;10.59;72.16
45523;BME280;31254;51.680;5.394;2023-05-20T03:58:29;102391.66;;;10.60;71.88
45523;BME280;31254;51.680;5.394;2023-05-20T04:00:56;102394.16;;;10.64;72.22
45523;BME280;31254;51.680;5.394;2023-05-20T04:03:23;102390.47;;;10.65;72.33
45523;BME280;31254;51.680;5.394;2023-05-20T04:05:50;102377.25;;;10.58;72.00
45523;BME280;31254;51.680;5.394;2023-05-20T04:08:17;102399.06;;;10.71;72.39
45523;BME280;31254;51.680;5.394;2023-05-20T04:10:45;102398.63;;;10.77;72.03
45523;BME280;31254;51.680;5.394;2023-05-20T04:13:14;102377.88;;;10.75;71.87
45523;BME280;31254;51.680;5.394;2023-05-20T04:15:41;102392.44;;;10.87;71.68
45523;BME280;31254;51.680;5.394;2023-05-20T04:18:08;102393.00;;;10.92;71.78
45523;BME280;31254;51.680;5.394;2023-05-20T04:20:35;102392.63;;;10.96;71.57
45523;BME280;31254;51.680;5.394;2023-05-20T04:23:02;102385.97;;;11.01;71.51
45523;BME280;31254;51.680;5.394;2023-05-20T04:25:29;102377.56;;;11.04;71.23
45523;BME280;31254;51.680;5.394;2023-05-20T04:27:55;102386.78;;;11.14;71.15
45523;BME280;31254;51.680;5.394;2023-05-20T04:30:25;102383.06;;;11.15;71.29
45523;BME280;31254;51.680;5.394;2023-05-20T04:32:53;102390.47;;;11.26;71.14
45523;BME280;31254;51.680;5.394;2023-05-20T04:35:20;102389.81;;;11.22;71.17
45523;BME280;31254;51.680;5.394;2023-05-20T04:37:46;102394.47;;;11.33;70.96
45523;BME280;31254;51.680;5.394;2023-05-20T04:40:14;102393.13;;;11.39;70.84
45523;BME280;31254;51.680;5.394;2023-05-20T04:42:40;102386.19;;;11.46;71.03
45523;BME280;31254;51.680;5.394;2023-05-20T04:45:07;102393.34;;;11.60;70.70
45523;BME280;31254;51.680;5.394;2023-05-20T04:47:34;102389.03;;;11.80;70.08
45523;BME280;31254;51.680;5.394;2023-05-20T04:50:06;102388.84;;;11.94;70.03
45523;BME280;31254;51.680;5.394;2023-05-20T04:52:37;102396.84;;;12.20;69.23
45523;BME280;31254;51.680;5.394;2023-05-20T04:55:12;102385.03;;;13.73;65.06
45523;BME280;31254;51.680;5.394;2023-05-20T04:57:41;102380.06;;;15.21;60.94
45523;BME280;31254;51.680;5.394;2023-05-20T05:00:10;102386.19;;;16.21;58.51
45523;BME280;31254;51.680;5.394;2023-05-20T05:02:38;102388.94;;;17.50;55.60
45523;BME280;31254;51.680;5.394;2023-05-20T05:05:05;102382.56;;;18.12;54.35
45523;BME280;31254;51.680;5.394;2023-05-20T05:07:32;102385.50;;;18.79;53.21
45523;BME280;31254;51.680;5.394;2023-05-20T05:09:58;102372.34;;;19.57;51.34
45523;BME280;31254;51.680;5.394;2023-05-20T05:12:27;102370.28;;;19.91;50.81
45523;BME280;31254;51.680;5.394;2023-05-20T05:14:57;102360.94;;;20.49;49.07
45523;BME280;31254;51.680;5.394;2023-05-20T05:17:24;102357.78;;;20.60;48.54
45523;BME280;31254;51.680;5.394;2023-05-20T05:19:54;102363.00;;;20.55;48.77
45523;BME280;31254;51.680;5.394;2023-05-20T05:22:21;102363.13;;;20.70;48.88
45523;BME280;31254;51.680;5.394;2023-05-20T05:24:47;102363.22;;;20.93;48.04
45523;BME280;31254;51.680;5.394;2023-05-20T05:27:14;102357.63;;;21.24;47.45
45523;BME280;31254;51.680;5.394;2023-05-20T05:29:41;102357.63;;;21.47;47.07
45523;BME280;31254;51.680;5.394;2023-05-20T05:32:10;102345.88;;;21.83;45.88
45523;BME280;31254;51.680;5.394;2023-05-20T05:34:42;102358.16;;;22.04;45.46
45523;BME280;31254;51.680;5.394;2023-05-20T05:37:08;102323.44;;;21.70;45.65
45523;BME280;31254;51.680;5.394;2023-05-20T05:39:35;102354.06;;;22.00;45.51
45523;BME280;31254;51.680;5.394;2023-05-20T05:42:03;102353.28;;;22.06;45.03
45523;BME280;31254;51.680;5.394;2023-05-20T05:44:30;102362.41;;;22.74;44.14
45523;BME280;31254;51.680;5.394;2023-05-20T05:46:57;102355.84;;;22.97;42.94
45523;BME280;31254;51.680;5.394;2023-05-20T05:49:26;102351.63;;;22.86;42.84
45523;BME280;31254;51.680;5.394;2023-05-20T05:51:53;102357.44;;;22.40;43.66
45523;BME280;31254;51.680;5.394;2023-05-20T05:54:19;102358.19;;;22.63;43.16
45523;BME280;31254;51.680;5.394;2023-05-20T05:56:46;102357.03;;;22.73;43.35
45523;BME280;31254;51.680;5.394;2023-05-20T05:59:16;102348.84;;;23.23;42.11
45523;BME280;31254;51.680;5.394;2023-05-20T06:01:42;102355.44;;;23.36;41.99
45523;BME280;31254;51.680;5.394;2023-05-20T06:04:09;102351.31;;;23.54;41.34
45523;BME280;31254;51.680;5.394;2023-05-20T06:06:39;102354.69;;;23.93;40.82
45523;BME280;31254;51.680;5.394;2023-05-20T06:09:06;102339.47;;;23.95;40.41
45523;BME280;31254;51.680;5.394;2023-05-20T06:11:33;102344.03;;;24.03;40.20
45523;BME280;31254;51.680;5.394;2023-05-20T06:14:00;102343.91;;;24.18;40.10
45523;BME280;31254;51.680;5.394;2023-05-20T06:16:27;102350.03;;;24.35;39.29
45523;BME280;31254;51.680;5.394;2023-05-20T06:18:54;102342.94;;;24.39;39.62
45523;BME280;31254;51.680;5.394;2023-05-20T06:21:27;102346.16;;;24.77;38.90
45523;BME280;31254;51.680;5.394;2023-05-20T06:23:53;102341.88;;;25.43;37.88
45523;BME280;31254;51.680;5.394;2023-05-20T06:26:20;102336.06;;;25.58;37.82
45523;BME280;31254;51.680;5.394;2023-05-20T06:28:50;102338.19;;;25.83;37.04
45523;BME280;31254;51.680;5.394;2023-05-20T06:31:19;102332.59;;;25.83;37.17
45523;BME280;31254;51.680;5.394;2023-05-20T06:33:46;102327.44;;;25.86;37.27
45523;BME280;31254;51.680;5.394;2023-05-20T06:36:13;102323.16;;;25.97;36.65
45523;BME280;31254;51.680;5.394;2023-05-20T06:38:40;102319.13;;;26.65;35.73
45523;BME280;31254;51.680;5.394;2023-05-20T06:41:07;102319.91;;;25.94;36.51
45523;BME280;31254;51.680;5.394;2023-05-20T06:43:36;102327.47;;;26.00;36.37
45523;BME280;31254;51.680;5.394;2023-05-20T06:46:03;102326.09;;;26.36;36.11
45523;BME280;31254;51.680;5.394;2023-05-20T06:48:30;102320.34;;;27.14;34.78
45523;BME280;31254;51.680;5.394;2023-05-20T06:50:57;102315.34;;;27.23;34.57
45523;BME280;31254;51.680;5.394;2023-05-20T06:53:26;102313.56;;;27.29;34.14
45523;BME280;31254;51.680;5.394;2023-05-20T06:55:53;102308.31;;;27.46;33.93
45523;BME280;31254;51.680;5.394;2023-05-20T06:58:26;102301.91;;;27.82;33.27
45523;BME280;31254;51.680;5.394;2023-05-20T07:00:53;102312.91;;;27.33;34.22
45523;BME280;31254;51.680;5.394;2023-05-20T07:03:20;102308.34;;;26.62;34.33
45523;BME280;31254;51.680;5.394;2023-05-20T07:05:49;102310.91;;;26.63;34.21
45523;BME280;31254;51.680;5.394;2023-05-20T07:08:18;102293.56;;;26.41;34.90
45523;BME280;31254;51.680;5.394;2023-05-20T07:10:48;102298.88;;;26.70;34.92
45523;BME280;31254;51.680;5.394;2023-05-20T07:13:16;102298.81;;;27.15;34.29
45523;BME280;31254;51.680;5.394;2023-05-20T07:15:49;102304.63;;;27.45;33.41
45523;BME280;31254;51.680;5.394;2023-05-20T07:18:16;102284.25;;;27.82;32.68
45523;BME280;31254;51.680;5.394;2023-05-20T07:20:43;102288.81;;;28.20;32.66
45523;BME280;31254;51.680;5.394;2023-05-20T07:23:10;102310.56;;;27.81;32.74
45523;BME280;31254;51.680;5.394;2023-05-20T07:25:38;102289.13;;;27.11;33.29
45523;BME280;31254;51.680;5.394;2023-05-20T07:28:05;102296.84;;;26.84;32.90
45523;BME280;31254;51.680;5.394;2023-05-20T07:30:34;102295.50;;;26.41;33.69
45523;BME280;31254;51.680;5.394;2023-05-20T07:33:03;102286.88;;;27.26;32.48
45523;BME280;31254;51.680;5.394;2023-05-20T07:35:30;102291.31;;;27.09;33.10
45523;BME280;31254;51.680;5.394;2023-05-20T07:37:59;102295.19;;;27.08;32.93
45523;BME280;31254;51.680;5.394;2023-05-20T07:40:27;102276.63;;;27.13;33.25
45523;BME280;31254;51.680;5.394;2023-05-20T07:42:54;102272.22;;;26.99;32.62
45523;BME280;31254;51.680;5.394;2023-05-20T07:45:21;102274.97;;;27.06;32.61
45523;BME280;31254;51.680;5.394;2023-05-20T07:47:47;102280.72;;;27.68;32.10
45523;BME280;31254;51.680;5.394;2023-05-20T07:50:14;102267.28;;;26.94;32.23
45523;BME280;31254;51.680;5.394;2023-05-20T07:52:45;102284.03;;;27.01;32.24
45523;BME280;31254;51.680;5.394;2023-05-20T07:55:22;102277.13;;;27.04;32.08
45523;BME280;31254;51.680;5.394;2023-05-20T07:57:49;102286.88;;;26.94;32.03
45523;BME280;31254;51.680;5.394;2023-05-20T08:00:16;102272.31;;;27.11;31.77
45523;BME280;31254;51.680;5.394;2023-05-20T08:02:42;102273.50;;;27.28;31.32
45523;BME280;31254;51.680;5.394;2023-05-20T08:05:10;102271.00;;;26.81;32.22
45523;BME280;31254;51.680;5.394;2023-05-20T08:07:36;102272.06;;;26.42;32.85
45523;BME280;31254;51.680;5.394;2023-05-20T08:10:03;102280.53;;;26.15;33.10
45523;BME280;31254;51.680;5.394;2023-05-20T08:12:30;102270.22;;;26.09;32.86
45523;BME280;31254;51.680;5.394;2023-05-20T08:14:59;102273.06;;;25.69;33.50
45523;BME280;31254;51.680;5.394;2023-05-20T08:17:26;102270.88;;;25.91;33.36
45523;BME280;31254;51.680;5.394;2023-05-20T08:19:55;102266.88;;;26.45;32.42
45523;BME280;31254;51.680;5.394;2023-05-20T08:22:22;102274.97;;;25.95;32.69
45523;BME280;31254;51.680;5.394;2023-05-20T08:24:51;102258.91;;;25.57;33.08
45523;BME280;31254;51.680;5.394;2023-05-20T08:27:18;102264.69;;;25.69;32.28
45523;BME280;31254;51.680;5.394;2023-05-20T08:29:45;102261.94;;;25.29;32.76
45523;BME280;31254;51.680;5.394;2023-05-20T08:32:12;102244.47;;;25.27;32.82
45523;BME280;31254;51.680;5.394;2023-05-20T08:34:39;102237.19;;;25.26;32.68
45523;BME280;31254;51.680;5.394;2023-05-20T08:37:05;102258.00;;;25.03;32.70
45523;BME280;31254;51.680;5.394;2023-05-20T08:39:32;102243.78;;;24.85;33.36
45523;BME280;31254;51.680;5.394;2023-05-20T08:41:59;102251.72;;;24.74;33.60
45523;BME280;31254;51.680;5.394;2023-05-20T08:44:26;102240.16;;;24.97;33.23
45523;BME280;31254;51.680;5.394;2023-05-20T08:46:55;102250.06;;;25.00;33.20
45523;BME280;31254;51.680;5.394;2023-05-20T08:49:22;102254.31;;;24.89;33.40
45523;BME280;31254;51.680;5.394;2023-05-20T08:51:49;102251.38;;;25.17;33.23
45523;BME280;31254;51.680;5.394;2023-05-20T08:54:18;102241.53;;;25.48;32.47
45523;BME280;31254;51.680;5.394;2023-05-20T08:56:47;102248.16;;;25.47;32.81
45523;BME280;31254;51.680;5.394;2023-05-20T08:59:14;102245.16;;;25.49;33.12
45523;BME280;31254;51.680;5.394;2023-05-20T09:01:41;102242.31;;;25.15;33.28
45523;BME280;31254;51.680;5.394;2023-05-20T09:04:11;102239.38;;;25.30;33.56
45523;BME280;31254;51.680;5.394;2023-05-20T09:06:43;102236.84;;;26.27;31.51
45523;BME280;31254;51.680;5.394;2023-05-20T09:09:11;102225.78;;;25.00;33.48
45523;BME280;31254;51.680;5.394;2023-05-20T09:11:39;102237.91;;;24.53;34.56
45523;BME280;31254;51.680;5.394;2023-05-20T09:14:07;102233.66;;;24.57;34.21
45523;BME280;31254;51.680;5.394;2023-05-20T09:16:34;102224.56;;;24.35;34.65
45523;BME280;31254;51.680;5.394;2023-05-20T09:19:01;102229.59;;;24.18;34.87
45523;BME280;31254;51.680;5.394;2023-05-20T09:21:31;102228.59;;;24.32;35.07
45523;BME280;31254;51.680;5.394;2023-05-20T09:24:01;102228.03;;;24.02;35.14
45523;BME280;31254;51.680;5.394;2023-05-20T09:26:28;102201.97;;;23.18;35.67
45523;BME280;31254;51.680;5.394;2023-05-20T09:29:01;102222.25;;;23.40;35.55
45523;BME280;31254;51.680;5.394;2023-05-20T09:31:31;102207.97;;;23.50;35.75
45523;BME280;31254;51.680;5.394;2023-05-20T09:34:02;102210.13;;;23.05;37.05
45523;BME280;31254;51.680;5.394;2023-05-20T09:36:29;102246.72;;;22.80;37.08
45523;BME280;31254;51.680;5.394;2023-05-20T09:38:59;102227.09;;;22.45;37.72
45523;BME280;31254;51.680;5.394;2023-05-20T09:41:39;102216.31;;;21.90;38.24
45523;BME280;31254;51.680;5.394;2023-05-20T09:44:10;102231.31;;;21.96;38.77
45523;BME280;31254;51.680;5.394;2023-05-20T09:46:41;102226.84;;;21.80;39.05
45523;BME280;31254;51.680;5.394;2023-05-20T09:49:12;102233.91;;;21.68;39.06
45523;BME280;31254;51.680;5.394;2023-05-20T09:51:43;102223.22;;;21.42;39.38
45523;BME280;31254;51.680;5.394;2023-05-20T09:54:11;102226.81;;;21.12;39.78
45523;BME280;31254;51.680;5.394;2023-05-20T09:56:41;102215.88;;;20.88;40.35
45523;BME280;31254;51.680;5.394;2023-05-20T09:59:09;102228.66;;;20.74;40.66
45523;BME280;31254;51.680;5.394;2023-05-20T10:01:37;102221.34;;;20.50;41.36
45523;BME280;31254;51.680;5.394;2023-05-20T10:04:05;102211.59;;;20.85;41.43
45523;BME280;31254;51.680;5.394;2023-05-20T10:09:31;102214.41;;;21.00;40.35
45523;BME280;31254;51.680;5.394;2023-05-20T10:12:24;102211.72;;;20.92;40.56
45523;BME280;31254;51.680;5.394;2023-05-20T10:15:17;102213.66;;;21.06;40.85
45523;BME280;31254;51.680;5.394;2023-05-20T10:20:48;102196.09;;;21.14;40.73
45523;BME280;31254;51.680;5.394;2023-05-20T10:23:23;102190.94;;;21.26;40.43
45523;BME280;31254;51.680;5.394;2023-05-20T10:25:56;102171.22;;;21.21;40.70
45523;BME280;31254;51.680;5.394;2023-05-20T10:28:36;102193.63;;;21.34;40.20
45523;BME280;31254;51.680;5.394;2023-05-20T10:31:21;102203.00;;;21.33;40.08
45523;BME280;31254;51.680;5.394;2023-05-20T10:33:51;102199.09;;;21.27;40.55
45523;BME280;31254;51.680;5.394;2023-05-20T10:36:26;102187.81;;;21.44;40.55
45523;BME280;31254;51.680;5.394;2023-05-20T10:38:57;102191.38;;;21.52;40.28
45523;BME280;31254;51.680;5.394;2023-05-20T10:41:26;102158.69;;;21.40;40.23
45523;BME280;31254;51.680;5.394;2023-05-20T10:44:04;102178.81;;;21.27;40.77
45523;BME280;31254;51.680;5.394;2023-05-20T10:46:34;102167.44;;;21.36;40.75
45523;BME280;31254;51.680;5.394;2023-05-20T10:49:21;102162.34;;;21.25;40.71
45523;BME280;31254;51.680;5.394;2023-05-20T10:51:53;102167.75;;;21.57;40.63
45523;BME280;31254;51.680;5.394;2023-05-20T10:54:21;102164.88;;;21.80;40.20
45523;BME280;31254;51.680;5.394;2023-05-20T10:56:52;102157.09;;;22.05;39.99
45523;BME280;31254;51.680;5.394;2023-05-20T10:59:20;102170.50;;;21.86;39.93
45523;BME280;31254;51.680;5.394;2023-05-20T11:01:48;102169.81;;;21.99;39.99
45523;BME280;31254;51.680;5.394;2023-05-20T11:04:16;102173.00;;;21.81;39.84
45523;BME280;31254;51.680;5.394;2023-05-20T11:06:49;102172.06;;;21.74;39.85
45523;BME280;31254;51.680;5.394;2023-05-20T11:09:20;102165.16;;;21.70;40.21
45523;BME280;31254;51.680;5.394;2023-05-20T11:11:49;102119.38;;;21.81;39.69
45523;BME280;31254;51.680;5.394;2023-05-20T11:14:21;102162.22;;;22.23;39.60
45523;BME280;31254;51.680;5.394;2023-05-20T11:16:51;102142.09;;;22.21;39.44
45523;BME280;31254;51.680;5.394;2023-05-20T11:19:19;102150.19;;;22.01;39.51
45523;BME280;31254;51.680;5.394;2023-05-20T11:21:49;102145.09;;;22.04;40.07
45523;BME280;31254;51.680;5.394;2023-05-20T11:24:25;102136.66;;;22.13;40.13
45523;BME280;31254;51.680;5.394;2023-05-20T11:26:55;102136.41;;;22.44;39.31
45523;BME280;31254;51.680;5.394;2023-05-20T11:29:26;102137.47;;;22.64;39.21
45523;BME280;31254;51.680;5.394;2023-05-20T11:31:58;102115.22;;;22.64;38.93
45523;BME280;31254;51.680;5.394;2023-05-20T11:34:32;102138.31;;;22.65;39.23
45523;BME280;31254;51.680;5.394;2023-05-20T11:37:06;102132.66;;;22.37;39.21
45523;BME280;31254;51.680;5.394;2023-05-20T11:39:33;102130.38;;;22.25;39.87
45523;BME280;31254;51.680;5.394;2023-05-20T11:42:00;102125.00;;;22.39;39.48
45523;BME280;31254;51.680;5.394;2023-05-20T11:44:27;102113.09;;;22.45;39.83
45523;BME280;31254;51.680;5.394;2023-05-20T11:46:59;102124.13;;;22.81;39.69
45523;BME280;31254;51.680;5.394;2023-05-20T11:49:26;102117.66;;;23.03;39.19
45523;BME280;31254;51.680;5.394;2023-05-20T11:51:53;102120.13;;;23.12;38.66
45523;BME280;31254;51.680;5.394;2023-05-20T11:54:21;102116.88;;;23.09;38.25
45523;BME280;31254;51.680;5.394;2023-05-20T11:56:49;102115.69;;;22.96;38.66
45523;BME280;31254;51.680;5.394;2023-05-20T11:59:16;102110.72;;;22.92;39.04
45523;BME280;31254;51.680;5.394;2023-05-20T12:01:42;102106.22;;;23.12;38.34
45523;BME280;31254;51.680;5.394;2023-05-20T12:04:10;102106.13;;;23.34;38.14
45523;BME280;31254;51.680;5.394;2023-05-20T12:06:38;102106.97;;;23.28;37.70
45523;BME280;31254;51.680;5.394;2023-05-20T12:09:07;102096.41;;;23.16;37.93
45523;BME280;31254;51.680;5.394;2023-05-20T12:11:36;102095.19;;;23.32;37.92
45523;BME280;31254;51.680;5.394;2023-05-20T12:14:05;102105.69;;;23.30;38.25
45523;BME280;31254;51.680;5.394;2023-05-20T12:16:33;102096.75;;;23.42;37.76
45523;BME280;31254;51.680;5.394;2023-05-20T12:19:03;102087.47;;;23.28;38.12
45523;BME280;31254;51.680;5.394;2023-05-20T12:21:31;102087.06;;;23.31;37.97
45523;BME280;31254;51.680;5.394;2023-05-20T12:24:02;102081.81;;;23.49;37.73
45523;BME280;31254;51.680;5.394;2023-05-20T12:26:32;102078.03;;;23.64;37.68
45523;BME280;31254;51.680;5.394;2023-05-20T12:29:00;102094.31;;;23.67;37.82
45523;BME280;31254;51.680;5.394;2023-05-20T12:31:27;102089.53;;;23.54;37.59
45523;BME280;31254;51.680;5.394;2023-05-20T12:33:53;102090.81;;;23.51;37.63
45523;BME280;31254;51.680;5.394;2023-05-20T12:36:23;102083.41;;;23.30;38.08
45523;BME280;31254;51.680;5.394;2023-05-20T12:38:49;102084.06;;;23.32;37.74
45523;BME280;31254;51.680;5.394;2023-05-20T12:41:16;102076.38;;;23.06;38.40
45523;BME280;31254;51.680;5.394;2023-05-20T12:43:43;102077.84;;;23.30;38.37
45523;BME280;31254;51.680;5.394;2023-05-20T12:46:10;102082.94;;;23.20;38.34
45523;BME280;31254;51.680;5.394;2023-05-20T12:48:41;102082.97;;;22.98;38.46
45523;BME280;31254;51.680;5.394;2023-05-20T12:51:08;102082.97;;;22.98;38.68
45523;BME280;31254;51.680;5.394;2023-05-20T12:53:35;102077.41;;;22.98;38.75
45523;BME280;31254;51.680;5.394;2023-05-20T12:56:02;102073.75;;;22.98;38.49
45523;BME280;31254;51.680;5.394;2023-05-20T12:58:30;102075.84;;;23.17;38.65
45523;BME280;31254;51.680;5.394;2023-05-20T13:00:57;102085.22;;;23.10;38.68
45523;BME280;31254;51.680;5.394;2023-05-20T13:03:24;102074.75;;;23.12;38.63